sensor_id;sensor_type;location;lat;lon;timestamp;P1;durP1;ratioP1;P2;durP2;ratioP2
62153;SDS011;48140;45.486;9.226;2023-03-04T00:01:49;25.65;;;10.27;;
62153;SDS011;48140;45.486;9.226;2023-03-04T00:04:15;18.50;;;9.63;;
62153;SDS011;48140;45.486;9.226;2023-03-04T00:06:41;22.35;;;10.68;;
62153;SDS011;48140;45.486;9.226;2023-03-04T00:09:07;17.10;;;9.68;;
62153;SDS011;48140;45.486;9.226;2023-03-04T00:11:33;16.73;;;10.10;;
62153;SDS011;48140;45.486;9.226;2023-03-04T00:13:58;20.98;;;11.52;;
62153;SDS011;48140;45.486;9.226;2023-03-04T00:16:24;19.73;;;10.48;;
62153;SDS011;48140;45.486;9.226;2023-03-04T00:18:53;18.73;;;10.45;;
62153;SDS011;48140;45.486;9.226;2023-03-04T00:21:19;20.40;;;9.65;;
62153;SDS011;48140;45.486;9.226;2023-03-04T00:23:45;18.35;;;10.55;;
62153;SDS011;48140;45.486;9.226;2023-03-04T00:26:11;26.90;;;11.13;;
62153;SDS011;48140;45.486;9.226;2023-03-04T00:28:37;18.30;;;9.77;;
62153;SDS011;48140;45.486;9.226;2023-03-04T00:31:04;20.23;;;10.30;;
62153;SDS011;48140;45.486;9.226;2023-03-04T00:33:30;23.58;;;10.48;;
62153;SDS011;48140;45.486;9.226;2023-03-04T00:35:56;20.15;;;10.50;;
62153;SDS011;48140;45.486;9.226;2023-03-04T00:38:21;19.90;;;9.90;;
62153;SDS011;48140;45.486;9.226;2023-03-04T00:40:47;20.25;;;10.63;;
62153;SDS011;48140;45.486;9.226;2023-03-04T00:43:13;17.67;;;9.57;;
62153;SDS011;48140;45.486;9.226;2023-03-04T00:45:38;19.80;;;10.88;;
62153;SDS011;48140;45.486;9.226;2023-03-04T00:48:04;18.35;;;10.43;;
62153;SDS011;48140;45.486;9.226;2023-03-04T00:50:29;23.40;;;10.77;;
62153;SDS011;48140;45.486;9.226;2023-03-04T00:52:55;18.88;;;10.68;;
62153;SDS011;48140;45.486;9.226;2023-03-04T00:55:21;23.60;;;9.98;;
62153;SDS011;48140;45.486;9.226;2023-03-04T00:57:46;22.40;;;9.88;;
62153;SDS011;48140;45.486;9.226;2023-03-04T01:00:12;19.80;;;10.20;;
62153;SDS011;48140;45.486;9.226;2023-03-04T01:02:38;19.65;;;10.98;;
62153;SDS011;48140;45.486;9.226;2023-03-04T01:05:04;19.38;;;10.18;;
62153;SDS011;48140;45.486;9.226;2023-03-04T01:07:31;24.27;;;10.30;;
62153;SDS011;48140;45.486;9.226;2023-03-04T01:09:56;17.75;;;10.73;;
62153;SDS011;48140;45.486;9.226;2023-03-04T01:12:22;18.70;;;10.68;;
62153;SDS011;48140;45.486;9.226;2023-03-04T01:14:48;17.13;;;8.85;;
62153;SDS011;48140;45.486;9.226;2023-03-04T01:17:14;20.00;;;10.68;;
62153;SDS011;48140;45.486;9.226;2023-03-04T01:19:39;16.33;;;9.77;;
62153;SDS011;48140;45.486;9.226;2023-03-04T01:22:05;18.58;;;10.02;;
62153;SDS011;48140;45.486;9.226;2023-03-04T01:24:31;17.73;;;9.90;;
62153;SDS011;48140;45.486;9.226;2023-03-04T01:26:56;16.73;;;9.20;;
62153;SDS011;48140;45.486;9.226;2023-03-04T01:29:22;16.83;;;10.13;;
62153;SDS011;48140;45.486;9.226;2023-03-04T01:31:47;19.90;;;9.77;;
62153;SDS011;48140;45.486;9.226;2023-03-04T01:34:13;21.92;;;10.30;;
62153;SDS011;48140;45.486;9.226;2023-03-04T01:36:38;21.10;;;10.88;;
62153;SDS011;48140;45.486;9.226;2023-03-04T01:39:04;19.05;;;10.60;;
62153;SDS011;48140;45.486;9.226;2023-03-04T01:41:30;17.48;;;10.05;;
62153;SDS011;48140;45.486;9.226;2023-03-04T01:43:56;17.42;;;9.63;;
62153;SDS011;48140;45.486;9.226;2023-03-04T01:46:24;23.08;;;10.63;;
62153;SDS011;48140;45.486;9.226;2023-03-04T01:48:50;21.48;;;10.60;;
62153;SDS011;48140;45.486;9.226;2023-03-04T01:51:17;21.20;;;10.57;;
62153;SDS011;48140;45.486;9.226;2023-03-04T01:53:44;18.90;;;10.45;;
62153;SDS011;48140;45.486;9.226;2023-03-04T01:56:14;20.00;;;10.73;;
62153;SDS011;48140;45.486;9.226;2023-03-04T01:58:49;20.73;;;11.20;;
62153;SDS011;48140;45.486;9.226;2023-03-04T02:04:11;23.75;;;10.63;;
62153;SDS011;48140;45.486;9.226;2023-03-04T02:06:39;18.05;;;10.10;;
62153;SDS011;48140;45.486;9.226;2023-03-04T02:27:13;22.48;;;11.15;;
62153;SDS011;48140;45.486;9.226;2023-03-04T02:29:41;22.42;;;11.40;;
62153;SDS011;48140;45.486;9.226;2023-03-04T02:32:09;22.52;;;11.57;;
62153;SDS011;48140;45.486;9.226;2023-03-04T02:34:37;19.75;;;9.90;;
62153;SDS011;48140;45.486;9.226;2023-03-04T02:37:09;21.80;;;11.35;;
62153;SDS011;48140;45.486;9.226;2023-03-04T02:39:44;25.00;;;11.30;;
62153;SDS011;48140;45.486;9.226;2023-03-04T02:42:11;17.85;;;11.38;;
62153;SDS011;48140;45.486;9.226;2023-03-04T02:44:41;21.92;;;11.00;;
62153;SDS011;48140;45.486;9.226;2023-03-04T02:47:11;19.20;;;10.95;;
62153;SDS011;48140;45.486;9.226;2023-03-04T02:49:38;20.88;;;10.75;;
62153;SDS011;48140;45.486;9.226;2023-03-04T02:52:06;20.30;;;11.05;;
62153;SDS011;48140;45.486;9.226;2023-03-04T02:54:41;18.23;;;11.15;;
62153;SDS011;48140;45.486;9.226;2023-03-04T02:57:08;19.08;;;10.80;;
62153;SDS011;48140;45.486;9.226;2023-03-04T02:59:37;21.85;;;11.23;;
62153;SDS011;48140;45.486;9.226;2023-03-04T03:02:07;21.50;;;11.32;;
62153;SDS011;48140;45.486;9.226;2023-03-04T03:04:44;28.13;;;11.30;;
62153;SDS011;48140;45.486;9.226;2023-03-04T03:07:10;21.27;;;10.50;;
62153;SDS011;48140;45.486;9.226;2023-03-04T03:09:35;27.83;;;11.73;;
62153;SDS011;48140;45.486;9.226;2023-03-04T03:12:01;19.60;;;10.60;;
62153;SDS011;48140;45.486;9.226;2023-03-04T03:14:26;24.85;;;11.27;;
62153;SDS011;48140;45.486;9.226;2023-03-04T03:16:52;22.08;;;11.23;;
62153;SDS011;48140;45.486;9.226;2023-03-04T03:19:18;21.38;;;11.13;;
62153;SDS011;48140;45.486;9.226;2023-03-04T03:21:48;23.88;;;12.18;;
62153;SDS011;48140;45.486;9.226;2023-03-04T03:24:14;22.95;;;10.95;;
62153;SDS011;48140;45.486;9.226;2023-03-04T03:26:41;20.77;;;11.02;;
62153;SDS011;48140;45.486;9.226;2023-03-04T03:29:07;22.65;;;11.48;;
62153;SDS011;48140;45.486;9.226;2023-03-04T03:31:33;23.90;;;11.93;;
62153;SDS011;48140;45.486;9.226;2023-03-04T03:34:01;19.13;;;11.43;;
62153;SDS011;48140;45.486;9.226;2023-03-04T03:36:29;18.50;;;11.27;;
62153;SDS011;48140;45.486;9.226;2023-03-04T03:38:55;17.67;;;11.32;;
62153;SDS011;48140;45.486;9.226;2023-03-04T03:41:20;21.58;;;11.20;;
62153;SDS011;48140;45.486;9.226;2023-03-04T03:43:46;18.08;;;11.60;;
62153;SDS011;48140;45.486;9.226;2023-03-04T03:46:12;25.08;;;10.82;;
62153;SDS011;48140;45.486;9.226;2023-03-04T03:48:37;21.58;;;11.27;;
62153;SDS011;48140;45.486;9.226;2023-03-04T03:51:03;19.77;;;10.75;;
62153;SDS011;48140;45.486;9.226;2023-03-04T03:53:30;20.80;;;11.13;;
62153;SDS011;48140;45.486;9.226;2023-03-04T03:55:57;16.73;;;10.90;;
62153;SDS011;48140;45.486;9.226;2023-03-04T03:58:24;23.10;;;11.50;;
62153;SDS011;48140;45.486;9.226;2023-03-04T04:00:51;27.48;;;12.15;;
62153;SDS011;48140;45.486;9.226;2023-03-04T04:03:18;20.63;;;11.40;;
62153;SDS011;48140;45.486;9.226;2023-03-04T04:05:44;22.23;;;11.57;;
62153;SDS011;48140;45.486;9.226;2023-03-04T04:08:13;21.40;;;11.68;;
62153;SDS011;48140;45.486;9.226;2023-03-04T04:10:40;20.63;;;11.18;;
62153;SDS011;48140;45.486;9.226;2023-03-04T04:13:06;17.85;;;11.27;;
62153;SDS011;48140;45.486;9.226;2023-03-04T04:15:33;21.30;;;11.65;;
62153;SDS011;48140;45.486;9.226;2023-03-04T04:18:00;23.40;;;11.45;;
62153;SDS011;48140;45.486;9.226;2023-03-04T04:20:26;23.27;;;12.45;;
62153;SDS011;48140;45.486;9.226;2023-03-04T04:22:52;26.55;;;11.25;;
62153;SDS011;48140;45.486;9.226;2023-03-04T04:25:17;23.73;;;11.85;;
62153;SDS011;48140;45.486;9.226;2023-03-04T04:27:44;17.67;;;10.55;;
62153;SDS011;48140;45.486;9.226;2023-03-04T04:30:10;21.50;;;12.43;;
62153;SDS011;48140;45.486;9.226;2023-03-04T04:40:22;22.40;;;11.55;;
62153;SDS011;48140;45.486;9.226;2023-03-04T04:42:48;22.00;;;11.35;;
62153;SDS011;48140;45.486;9.226;2023-03-04T04:45:13;22.27;;;10.93;;
62153;SDS011;48140;45.486;9.226;2023-03-04T04:47:40;23.35;;;11.40;;
62153;SDS011;48140;45.486;9.226;2023-03-04T04:50:06;25.70;;;11.70;;
62153;SDS011;48140;45.486;9.226;2023-03-04T04:52:32;22.40;;;11.95;;
62153;SDS011;48140;45.486;9.226;2023-03-04T04:54:58;22.52;;;11.40;;
62153;SDS011;48140;45.486;9.226;2023-03-04T04:57:24;20.80;;;11.25;;
62153;SDS011;48140;45.486;9.226;2023-03-04T04:59:49;21.00;;;11.50;;
62153;SDS011;48140;45.486;9.226;2023-03-04T11:12:33;28.50;;;16.00;;
62153;SDS011;48140;45.486;9.226;2023-03-04T11:14:59;27.88;;;15.75;;
